ADDS METAR Data INFO
IDs: Format: Raw Decoded Include TAF

Data at: 1715 UTC 23 Oct 2017

KAST 231655Z AUTO 08003KT 10SM CLR 12/11 A3058 RMK AO2 SLP353 T01170106
KAST 231555Z AUTO 00000KT 7SM CLR 09/09 A3057 RMK AO2 SLP351 T00940089
KAST 231455Z AUTO 13005KT 5SM BR CLR 08/08 A3056 RMK AO2 SLP347 T00830078 51009
KAST 231412Z AUTO 11005KT 7SM SCT012 08/08 A3055 RMK AO2 VIS 1 3/4 RWY 08 T00830078
KAST 231405Z AUTO 10004KT 3SM BR BKN013 08/08 A3055 RMK AO2 VIS 1/2 RWY 08 CIG 008 RWY 08 T00830078
KAST 231401Z AUTO 11004KT 1 3/4SM BR BKN014 08/07 A3055 RMK AO2 VIS 1/4 RWY 08 CIG 006 RWY 08 T00780072
KAST 231355Z AUTO 11003KT 3/4SM BR VV011 08/08 A3055 RMK AO2 SLP344 T00780078
KAST 231337Z AUTO 11003KT 1/2SM FG VV006 08/08 A3055 RMK AO2 T00780078 $
KAST 231321Z AUTO 00000KT 1/4SM FG VV003 08/07 A3054 RMK AO2 T00780072 $
KAST 231313Z AUTO 10003KT 1/4SM FG VV005 07/07 A3054 RMK AO2 T00720072 $
KAST 231255Z AUTO 10003KT 1/4SM FG VV003 08/07 A3054 RMK AO2 SLP340 T00780072 $
KAST 231233Z AUTO 10003KT 1/4SM FG VV007 08/07 A3053 RMK AO2 T00780072 $
KAST 231223Z AUTO 12004KT 1/2SM FG VV009 07/07 A3053 RMK AO2 T00720067 $
KAST 231217Z AUTO 12004KT 1 1/4SM BR BKN014 08/07 A3053 RMK AO2 VIS 1/2 RWY 08 T00780072 $
KAST 231214Z AUTO 12004KT 2 1/2SM BR BKN017 08/07 A3053 RMK AO2 VIS 3/4 RWY 08 T00780072 $
KAST 231155Z AUTO 00000KT 9SM CLR 08/07 A3053 RMK AO2 VIS 1 1/4 RWY 08 CIG 026 RWY 08 SLP338 70020 T00780072 10106 20067 50010 $
KAST 231106Z AUTO 00000KT 8SM SCT029 08/08 A3053 RMK AO2 VIS 2 1/2 RWY 08 T00780078 $
KAST 231055Z AUTO 10003KT 9SM BKN028 08/08 A3053 RMK AO2 VIS 2 1/2 RWY 08 SLP338 T00830078 $
KAST 231044Z AUTO 07003KT 8SM BKN027 08/07 A3053 RMK AO2 T00830072 $
KAST 230955Z AUTO 00000KT 9SM FEW029 08/07 A3052 RMK AO2 SLP333 T00830072 $
KAST 230944Z AUTO 14003KT 6SM BR FEW029 08/07 A3051 RMK AO2 VIS 1 3/4 RWY 08 T00780072 $
KAST 230936Z AUTO 15003KT 2SM BR SCT030 08/07 A3051 RMK AO2 VIS 3/4 RWY 08 T00780072 $
KAST 230932Z AUTO 14003KT 1SM BR BKN030 08/07 A3051 RMK AO2 T00780072 $
KAST 230924Z AUTO 13004KT 1 3/4SM BR BKN031 08/07 A3051 RMK AO2 VIS 3/4 RWY 08 T00780072 $
KAST 230855Z AUTO 00000KT 10SM BKN033 08/08 A3050 RMK AO2 VIS 3/4 RWY 08 SLP328 T00830078 51015 $
KAST 230806Z AUTO 00000KT 5SM BR SCT025 08/08 A3049 RMK AO2 VIS 2 1/2 RWY 08 T00830083 $
KAST 230755Z AUTO 00000KT 3SM BR BKN027 09/08 A3049 RMK AO2 VIS 3/4 RWY 08 T00890083 $
KAST 230750Z AUTO 00000KT 1 1/2SM BR BKN026 09/08 A3049 RMK AO2 VIS 1/2 RWY 08 SLP324 T00890083 401500083 $
KAST 230749Z AUTO 00000KT 1 1/2SM BR BKN026 09/08 A3049 RMK AO2 VIS 1/2 RWY 08 $
KAST 230738Z AUTO 00000KT 1 1/4SM BR FEW007 FEW032 09/08 A3049 RMK AO2 T00890083 $
KAST 230731Z AUTO 00000KT 1 1/2SM BR FEW007 SCT036 08/08 A3048 RMK AO2 VIS 3/4 RWY 08 T00830078 $
KAST 230725Z AUTO 00000KT 8SM FEW007 SCT038 09/08 A3048 RMK AO2 VIS 1/2 RWY 08 T00890083 $
KAST 230655Z AUTO 00000KT 7SM OVC045 09/08 A3048 RMK AO2 VIS 1 RWY 08 CIG 033 RWY 08 SLP321 T00940083 $
KAST 230555Z AUTO 12003KT 8SM BKN031 OVC055 10/09 A3046 RMK AO2 SLP313 60010 T01000094 10128 20089 53014 $
KAST 230533Z AUTO 00000KT 7SM SCT030 OVC055 10/09 A3045 RMK AO2 T01000089 $
KAST 230526Z AUTO 08004KT 3SM BR BKN028 BKN033 OVC055 09/09 A3045 RMK AO2 VIS 1 1/2 RWY 08 T00940089 $
KAST 230523Z AUTO 08004KT 1 1/2SM BR BKN028 BKN033 OVC060 09/09 A3046 RMK AO2 VIS 3/4 RWY 08 PRESRR T00940089 $
KAST 230519Z AUTO 08005KT 1SM BR BKN028 OVC033 09/09 A3045 RMK AO2 VIS 3/4V2 1/2 PRESRR T00890089 $
KAST 230508Z AUTO 08003KT 1 3/4SM BR OVC028 09/09 A3044 RMK AO2 VIS 3/4 RWY 08 T00940094 $
KAST 230455Z AUTO 00000KT 3SM BR OVC028 10/09 A3043 RMK AO2 VIS 3/4 RWY 08 SLP303 T01000094 $
KAST 230440Z AUTO 10003KT 3SM BR OVC030 10/09 A3043 RMK AO2 VIS 1/2 RWY 08 T01000094 $
KAST 230426Z AUTO 00000KT 1 3/4SM BR OVC030 11/10 A3043 RMK AO2 VIS 3/4 RWY 08 T01060100 $
KAST 230417Z AUTO 00000KT 3SM BR BKN031 OVC060 11/10 A3043 RMK AO2 VIS 3/4 RWY 08 T01060100 $
KAST 230402Z AUTO 09003KT 1 1/2SM BR OVC032 10/09 A3043 RMK AO2 T01000094 $
KAST 230355Z AUTO 09003KT 2SM BR OVC032 11/10 A3043 RMK AO2 SLP303 T01060100 $
KAST 230255Z AUTO 14004KT 6SM BR BKN040 OVC049 12/11 A3041 RMK AO2 SLP299 60010 T01170111 53023 $
KAST 230155Z AUTO 16004KT 9SM FEW012 SCT032 BKN085 12/11 A3039 RMK AO2 CIG 032 RWY 08 SLP290 T01220111 $
KAST 230055Z AUTO 22004KT 6SM BR SCT043 BKN060 13/12 A3036 RMK AO2 RAE33 SLP281 P0010 T01280117 $
KAST 230013Z AUTO 22008KT 5SM -RA BR FEW009 BKN040 OVC050 13/12 A3035 RMK AO2 P0010 T01330122 $
KAST 230006Z AUTO 23011G17KT 2 1/2SM -RA BR FEW009 BKN026 OVC060 13/12 A3035 RMK AO2 CIG 021 RWY 08 P0010 T01330122 $
KAST 230002Z AUTO 23011G17KT 1SM -RA BR FEW007 BKN026 OVC060 13/12 A3035 RMK AO2 P0010 T01330122 $
KAST 222355Z AUTO 23009KT 1 1/2SM -RA BR FEW010 BKN042 OVC065 14/13 A3035 RMK AO2 RAB51 SLP275 P0000 60010 T01390128 10150 20128 53018 $
KAST 222319Z AUTO 21008KT 6SM BR SCT029 OVC080 14/12 A3034 RMK AO2 T01390122 $
KAST 222306Z AUTO 22007KT 6SM BR BKN029 OVC085 14/12 A3034 RMK AO2 T01390122 $
KAST 222255Z AUTO 21006KT 6SM BR BKN030 OVC037 14/12 A3033 RMK AO2 SLP269 T01390122 $
KAST 222155Z AUTO 21004KT 10SM BKN039 OVC060 13/11 A3030 RMK AO2 RAE42 SLP261 P0007 T01330111 $
KAST 222120Z AUTO 23007KT 6SM -RA BR FEW017 BKN049 OVC065 13/12 A3031 RMK AO2 P0007 T01330117 $
KAST 222113Z AUTO 25008KT 2SM -RA BR FEW012 BKN049 OVC060 13/12 A3030 RMK AO2 VIS 1V5 CIG 040 RWY 08 P0007 T01280117 $
KAST 222108Z AUTO 26006G15KT 1 1/4SM -RA BR FEW012 BKN036 OVC060 13/12 A3030 RMK AO2 VIS 3/4V4 P0006 T01330117 $
KAST 222055Z AUTO 26008KT 2 1/2SM RA BR FEW037 BKN050 OVC065 14/12 A3029 RMK AO2 VIS 1 1/2 RWY 08 RAB12 SLP257 P0003 60003 T01390117 53029 $
KAST 221955Z AUTO 22008KT 8SM OVC033 15/11 A3026 RMK AO2 SLP247 T01500106 $
KAST 221940Z AUTO 22008KT 8SM OVC030 15/11 A3026 RMK AO2 T01500106 $
KAST 221855Z AUTO 22007KT 7SM OVC028 14/11 A3024 RMK AO2 SLP238 T01440106 $
KAST 221819Z AUTO 23008KT 7SM BKN026 BKN032 14/11 A3022 RMK AO2 T01440106 $
KAST 221755Z AUTO 24010KT 8SM SCT029 15/11 A3021 RMK AO2 SLP228 60000 T01500106 10150 20128 53039 $
KAST 221704Z AUTO 22012KT 7SM OVC028 15/11 A3017 RMK AO2 T01500111 $
KAST 221655Z AUTO 21010KT 7SM OVC030 14/11 A3017 RMK AO2 RAB22E37 SLP216 P0000 T01440106 $
KAST 221555Z AUTO 21007KT 7SM SCT040 BKN055 OVC070 14/11 A3013 RMK AO2 SLP202 T01390111 $
KAST 221455Z AUTO 21006KT 7SM OVC039 13/11 A3009 RMK AO2 RAB21E30 SLP190 P0000 60000 T01330111 53039 $
KAST 221355Z AUTO 21009KT 8SM SCT033 OVC049 13/11 A3004 RMK AO2 SLP173 T01280111 $
KAST 221255Z AUTO 21008KT 8SM BKN041 OVC060 13/12 A3001 RMK AO2 RAB31E49 SLP160 P0000 T01330117 $
KAST 221155Z AUTO 23007KT 9SM SCT028 BKN060 OVC095 13/11 A2998 RMK AO2 SLP150 60064 70360 T01280106 10144 20128 53041 $
KAST 221055Z AUTO 22012G18KT 10SM OVC044 14/12 A2993 RMK AO2 RAB08E29 SLP134 P0000 T01390122 $
KAST 221020Z AUTO 24014G20KT 9SM -RA SCT024 OVC040 13/12 A2990 RMK AO2 RAB08 CIG 033 RWY 08 P0000 T01330122 $
KAST 221008Z AUTO 24010KT 10SM -RA BKN025 BKN035 OVC065 13/12 A2989 RMK AO2 RAB08 P0000 T01330122 $
KAST 220955Z AUTO 23009G17KT 10SM FEW025 SCT033 OVC060 13/13 A2988 RMK AO2 RAE38 SLP118 P0001 T01330128 $
KAST 220917Z AUTO 22013G19KT 8SM -RA FEW004 BKN042 OVC050 13/13 A2986 RMK AO2 P0001 T01330133 $
KAST 220900Z AUTO 24011G18KT 3SM -RA BR SCT005 SCT010 OVC017 13/13 A2985 RMK AO2 CIG 005 RWY 08 P0000 T01330133 $
KAST 220855Z AUTO 26013KT 2 1/2SM RA BR BKN005 OVC011 13/13 A2985 RMK AO2 PK WND 19029/0819 RAE05B07 PRESRR SLP109 P0017 60063 T01330133 53031 $
KAST 220833Z AUTO 24013G28KT 1 3/4SM +RA BR BKN008 BKN013 OVC018 14/14 A2983 RMK AO2 PK WND 19029/0819 RAE05B07 PRESRR P0004 T01390139 $
KAST 220831Z AUTO 23017G28KT 2 1/2SM RA BR FEW005 BKN013 OVC024 14/14 A2982 RMK AO2 PK WND 19029/0819 RAE05B07 CIG 008 RWY 08 PRESRR P0003 T01440144 $
KAST 220828Z AUTO 22016G29KT 5SM -RA BR BKN011 BKN018 OVC024 14/14 A2982 RMK AO2 PK WND 19029/0819 RAE05B07 P0002 T01440144 $
KAST 220805Z AUTO 20016G31KT 9SM SCT007 BKN025 OVC034 14/14 A2980 RMK AO2 RAE05 P0000 T01440144 $
KAST 220755Z AUTO 21015G23KT 8SM -RA SCT006 BKN010 OVC034 14/14 A2980 RMK AO2 PK WND 22029/0744 CIG 006 RWY 08 SLP091 P0007 T01390139 401500083 $
KAST 220712Z AUTO 22007KT 5SM -RA OVC005 13/ A2979 RMK AO2 P0004 T0133 $
KAST 220655Z AUTO 22006KT 5SM -RA BKN004 OVC011 13/ A2978 RMK AO2 SLP083 P0039 T0128 $
KAST 220651Z AUTO 22007KT 4SM -RA BKN004 OVC013 13/ A2978 RMK AO2 P0038 $
KAST 220643Z AUTO 23006KT 2SM RA FEW005 OVC014 13/ A2977 RMK AO2 P0036 T0128 $
KAST 220635Z AUTO 25005KT 1 1/2SM +RA FEW004 OVC015 13/ A2977 RMK AO2 P0031 T0128 $
KAST 220619Z AUTO 26010KT 2SM +RA FEW005 OVC017 13/ A2977 RMK AO2 P0019 T0128 $
KAST 220555Z AUTO 28011KT 1 3/4SM +RA SCT005 OVC017 13/ A2976 RMK AO2 PK WND 24035/0503 SLP078 P0043 60156 T0128 10150 20128 53020 $
KAST 220541Z AUTO 26010KT 2 1/2SM RA FEW004 OVC015 13/ A2976 RMK AO2 PK WND 24035/0503 P0035 T0133 $
KAST 220533Z AUTO 27010KT 2SM +RA FEW005 OVC014 13/ A2976 RMK AO2 PK WND 24035/0503 P0031 T0133 $
KAST 220516Z AUTO 25019G31KT 1 1/2SM +RA BR SCT006 OVC013 14/14 A2976 RMK AO2 PK WND 24035/0503 CIG 005 RWY 08 P0017 T01390139 $